Time;durP1;ratioP1;P1;durP2;ratioP2;P2;SDS_P1;SDS_P2;PMS_P1;PMS_P2;Temp;Humidity;BMP_temperature;BMP_pressure;BME280_temperature;BME280_humidity;BME280_pressure;Samples;Min_cycle;Max_cycle;Signal;HPM_P1;HPM_P2
2022/03/14 00:02:05;;;;;;;36.30;9.80;;;;;;;;;;5036067;28;20505;-75
2022/03/14 00:04:36;;;;;;;16.03;7.97;;;;;;;;;;5034554;28;20430;-75
2022/03/14 00:07:02;;;;;;;21.00;7.50;;;;;;;;;;5034289;28;20423;-75
2022/03/14 00:09:28;;;;;;;19.43;8.10;;;;;;;;;;5035608;28;20443;-75
2022/03/14 00:11:57;;;;;;;22.57;7.33;;;;;;;;;;5039766;28;20905;-75
2022/03/14 00:14:26;;;;;;;21.23;8.70;;;;;;;;;;5034438;28;20450;-75
2022/03/14 00:16:54;;;;;;;18.50;8.30;;;9.00;99.90;;;;;;5024505;28;20438;-76
2022/03/14 00:19:20;;;;;;;21.53;8.40;;;;;;;;;;5037272;28;20481;-75
2022/03/14 00:21:50;;;;;;;15.93;8.23;;;;;;;;;;5041092;28;20919;-75
2022/03/14 00:24:26;;;;;;;20.10;8.17;;;;;;;;;;5036020;28;20999;-75
2022/03/14 00:26:54;;;;;;;15.83;7.70;;;;;;;;;;5030238;28;20429;-75
2022/03/14 00:29:21;;;;;;;26.27;9.20;;;;;;;;;;5036977;28;20390;-75
2022/03/14 00:31:50;;;;;;;20.33;8.20;;;;;;;;;;5037697;28;20415;-75
2022/03/14 00:34:16;;;;;;;21.13;7.97;;;;;;;;;;5035985;28;20942;-75
2022/03/14 00:36:44;;;;;;;17.30;7.73;;;;;;;;;;5045154;28;20807;-75
2022/03/14 00:39:10;;;;;;;20.67;8.03;;;;;;;;;;5031651;28;20415;-75
2022/03/14 00:41:36;;;;;;;22.90;8.50;;;;;;;;;;5036423;28;20419;-75
2022/03/14 00:44:03;;;;;;;26.90;9.27;;;;;;;;;;5018737;28;20534;-75
2022/03/14 00:46:32;;;;;;;20.53;8.57;;;;;;;;;;5023038;28;20954;-75
2022/03/14 00:48:58;;;;;;;27.13;8.23;;;;;;;;;;5041304;28;20403;-75
2022/03/14 00:51:26;;;;;;;17.03;7.80;;;;;;;;;;5036695;28;20423;-76
2022/03/14 00:53:56;;;;;;;18.60;7.60;;;;;;;;;;5036487;28;20934;-75
2022/03/14 00:56:27;;;;;;;26.77;8.60;;;;;;;;;;5036145;28;20458;-75
2022/03/14 00:58:58;;;;;;;32.57;9.83;;;;;;;;;;5036401;28;20407;-75
2022/03/14 01:01:25;;;;;;;15.63;8.03;;;;;;;;;;5037083;28;20430;-75
2022/03/14 01:03:51;;;;;;;17.60;7.80;;;;;;;;;;5036248;28;20464;-75
2022/03/14 01:06:20;;;;;;;18.47;7.53;;;;;;;;;;5035603;28;20435;-75
2022/03/14 01:08:46;;;;;;;17.37;7.77;;;;;;;;;;5035713;28;20480;-75
2022/03/14 01:11:14;;;;;;;19.20;7.87;;;;;;;;;;5036630;28;20506;-75
2022/03/14 01:14:01;;;;;;;22.00;8.27;;;;;;;;;;5036002;28;20474;-75
2022/03/14 01:16:27;;;;;;;20.50;7.83;;;;;;;;;;5032470;28;20473;-73
2022/03/14 01:18:53;;;;;;;46.37;8.10;;;;;;;;;;5035875;28;20415;-73
2022/03/14 01:21:19;;;;;;;19.97;8.33;;;;;;;;;;5035035;28;20445;-73
2022/03/14 01:23:45;;;;;;;23.07;8.60;;;;;;;;;;5035730;28;20907;-72
2022/03/14 01:26:11;;;;;;;18.40;8.10;;;;;;;;;;5036481;28;20927;-73
2022/03/14 01:28:38;;;;;;;21.40;7.33;;;;;;;;;;5047566;28;20985;-73
2022/03/14 01:31:04;;;;;;;21.10;7.50;;;;;;;;;;5025773;28;20445;-72
2022/03/14 01:33:30;;;;;;;18.40;7.50;;;;;;;;;;5042119;28;20480;-73
2022/03/14 01:35:56;;;;;;;21.63;7.57;;;;;;;;;;5036247;28;20414;-73
2022/03/14 01:38:22;;;;;;;22.30;7.80;;;;;;;;;;5035519;28;20750;-73
2022/03/14 01:40:48;;;;;;;21.03;7.60;;;;;;;;;;5035339;28;20883;-73
2022/03/14 01:43:16;;;;;;;18.60;7.57;;;;;;;;;;5035057;28;20419;-72
2022/03/14 01:45:46;;;;;;;23.30;8.07;;;;;;;;;;5034425;28;20485;-73
2022/03/14 01:48:12;;;;;;;15.43;6.50;;;;;;;;;;5035895;28;20410;-75
2022/03/14 01:50:44;;;;;;;15.27;7.30;;;;;;;;;;5046154;28;20426;-75
2022/03/14 01:53:20;;;;;;;19.30;7.30;;;;;;;;;;5035133;28;20434;-75
2022/03/14 01:55:48;;;;;;;15.30;6.73;;;8.60;99.90;;;;;;5035123;28;20513;-75
2022/03/14 01:58:15;;;;;;;25.93;7.83;;;;;;;;;;5035468;28;20434;-75
2022/03/14 02:00:56;;;;;;;17.23;7.50;;;;;;;;;;5044961;28;20419;-75
2022/03/14 02:03:22;;;;;;;20.17;6.80;;;;;;;;;;5035493;28;20466;-73
2022/03/14 02:05:48;;;;;;;15.73;6.93;;;;;;;;;;5034457;28;20904;-72
2022/03/14 02:08:15;;;;;;;18.93;8.00;;;8.20;99.90;;;;;;5017238;28;20825;-73
2022/03/14 02:10:41;;;;;;;20.93;8.10;;;;;;;;;;5035129;28;20484;-72
2022/03/14 02:13:09;;;;;;;19.37;8.10;;;;;;;;;;5034441;28;20584;-73
2022/03/14 02:15:35;;;;;;;20.33;8.10;;;8.00;99.90;;;;;;5034941;28;20431;-73
2022/03/14 02:18:02;;;;;;;20.63;7.80;;;;;;;;;;5035252;28;20431;-73
2022/03/14 02:20:28;;;;;;;17.23;7.60;;;;;;;;;;5034374;28;20431;-73
2022/03/14 02:22:54;;;;;;;18.20;7.23;;;;;;;;;;5034478;28;21002;-73
2022/03/14 02:25:20;;;;;;;18.03;7.30;;;;;;;;;;5034629;28;20490;-73
2022/03/14 02:27:46;;;;;;;25.57;8.30;;;;;;;;;;5037276;28;20488;-72
2022/03/14 02:30:12;;;;;;;558.25;139.43;;;;;;;;;;5034380;28;20840;-72
2022/03/14 02:32:41;;;;;;;596.80;167.18;;;;;;;;;;5039375;28;20570;-73
2022/03/14 02:35:08;;;;;;;429.97;118.37;;;7.80;99.90;;;;;;5028798;28;20197;-73
2022/03/14 02:37:34;;;;;;;19.23;7.60;;;;;;;;;;5034189;28;20518;-72
2022/03/14 02:40:00;;;;;;;504.43;184.63;;;;;;;;;;5033776;28;20983;-73
2022/03/14 02:42:26;;;;;;;211.73;104.87;;;;;;;;;;5033974;28;20898;-73
2022/03/14 02:44:56;;;;;;;24.00;8.33;;;;;;;;;;5035193;28;20835;-73
2022/03/14 02:47:26;;;;;;;16.97;7.27;;;;;;;;;;5037098;28;20836;-75
2022/03/14 02:49:56;;;;;;;18.63;7.00;;;;;;;;;;5034520;28;20431;-75
2022/03/14 02:52:22;;;;;;;29.30;7.70;;;;;;;;;;5034131;28;20936;-75
2022/03/14 02:54:56;;;;;;;16.97;6.73;;;;;;;;;;5034541;28;20454;-75
2022/03/14 02:57:27;;;;;;;14.93;6.57;;;;;;;;;;5034029;28;20905;-75
2022/03/14 02:59:56;;;;;;;30.03;7.97;;;;;;;;;;5030877;28;20446;-75
2022/03/14 03:02:23;;;;;;;16.90;7.07;;;;;;;;;;5034336;28;20411;-75
2022/03/14 03:04:50;;;;;;;13.70;6.10;;;;;;;;;;5033957;28;20427;-75
2022/03/14 03:07:20;;;;;;;22.30;7.60;;;;;;;;;;5033310;28;20423;-75
2022/03/14 03:09:50;;;;;;;11.00;5.30;;;;;;;;;;5035049;28;20522;-75
2022/03/14 03:12:16;;;;;;;13.57;5.03;;;8.60;1.00;;;;;;5033673;28;20442;-75
2022/03/14 03:14:42;;;;;;;9.87;4.73;;;;;;;;;;5039450;28;20588;-75
2022/03/14 03:17:15;;;;;;;14.97;5.40;;;;;;;;;;5042909;28;20923;-75
2022/03/14 03:19:41;;;;;;;9.20;4.63;;;;;;;;;;5033347;28;20754;-75
2022/03/14 03:22:07;;;;;;;12.77;5.20;;;;;;;;;;5033802;28;20771;-75
2022/03/14 03:24:34;;;;;;;9.60;4.17;;;;;;;;;;5043616;28;20396;-75
2022/03/14 03:27:00;;;;;;;10.93;4.47;;;;;;;;;;5035678;28;20422;-74
2022/03/14 03:29:26;;;;;;;9.27;4.80;;;;;;;;;;5040239;28;20915;-75
2022/03/14 03:31:52;;;;;;;9.70;4.37;;;;;;;;;;5034161;28;20422;-73
2022/03/14 03:34:20;;;;;;;7.33;3.90;;;;;;;;;;5033499;28;20843;-75
2022/03/14 03:36:46;;;;;;;7.40;3.27;;;;;;;;;;5042737;28;20428;-75
2022/03/14 03:39:12;;;;;;;8.57;3.37;;;;;;;;;;5040802;28;20430;-75
2022/03/14 03:41:38;;;;;;;6.97;3.13;;;;;;;;;;5033109;28;20427;-76
2022/03/14 03:44:05;;;;;;;5.83;3.20;;;;;;;;;;5033034;28;20435;-75
2022/03/14 03:46:31;;;;;;;8.97;3.33;;;;;;;;;;5035915;28;20419;-75
2022/03/14 03:48:57;;;;;;;6.03;3.20;;;;;;;;;;5033475;28;20900;-75
2022/03/14 03:51:23;;;;;;;14.90;3.27;;;;;;;;;;5036349;28;20829;-75
2022/03/14 03:53:49;;;;;;;5.80;3.00;;;;;;;;;;5033106;28;20508;-75
2022/03/14 03:56:20;;;;;;;8.67;3.30;;;;;;;;;;5035563;28;20904;-76
2022/03/14 03:58:47;;;;;;;7.23;2.77;;;;;;;;;;5033244;28;20406;-75
2022/03/14 04:01:19;;;;;;;6.33;2.80;;;;;;;;;;5033567;28;20426;-75
2022/03/14 04:03:54;;;;;;;14.77;3.83;;;;;;;;;;5033928;28;20450;-73
2022/03/14 04:06:20;;;;;;;6.73;2.30;;;;;;;;;;5036937;28;20411;-73
2022/03/14 04:08:47;;;;;;;10.63;2.63;;;;;;;;;;5033096;28;20449;-73
2022/03/14 04:11:13;;;;;;;7.10;2.50;;;;;;;;;;5033287;28;20924;-73
2022/03/14 04:13:39;;;;;;;6.87;2.50;;;;;;;;;;5032652;28;20497;-73
2022/03/14 04:16:05;;;;;;;5.37;1.40;;;;;;;;;;5033129;28;20423;-73
2022/03/14 04:18:32;;;;;;;12.50;2.77;;;;;;;;;;5034070;28;20474;-73
2022/03/14 04:21:00;;;;;;;4.70;1.80;;;;;;;;;;5039018;28;20433;-73
2022/03/14 04:23:28;;;;;;;13.30;2.60;;;;;;;;;;5025258;28;20432;-73
2022/03/14 04:25:54;;;;;;;6.90;2.90;;;;;;;;;;5036646;28;20472;-73
2022/03/14 04:28:20;;;;;;;11.63;3.10;;;;;;;;;;5032918;28;20431;-73
2022/03/14 04:30:46;;;;;;;13.50;3.07;;;;;;;;;;5036743;28;20932;-73
2022/03/14 04:33:12;;;;;;;6.20;2.53;;;;;;;;;;5044915;28;20433;-75
2022/03/14 04:35:39;;;;;;;6.37;2.13;;;;;;;;;;5033016;28;20426;-75
2022/03/14 04:38:07;;;;;;;4.40;2.30;;;;;;;;;;5052834;28;20794;-75
2022/03/14 04:40:33;;;;;;;9.90;2.57;;;;;;;;;;5028397;28;20425;-75
2022/03/14 04:43:07;;;;;;;5.40;2.87;;;9.50;1.00;;;;;;5036827;28;20418;-75
2022/03/14 04:45:39;;;;;;;11.17;2.70;;;;;;;;;;5049678;28;20884;-75
2022/03/14 04:48:08;;;;;;;8.30;2.33;;;;;;;;;;5024037;28;20428;-75
2022/03/14 04:50:39;;;;;;;10.70;2.73;;;;;;;;;;5032408;28;20907;-75
2022/03/14 04:53:08;;;;;;;3.20;2.07;;;;;;;;;;5032560;28;20438;-75
2022/03/14 04:55:38;;;;;;;6.00;2.27;;;;;;;;;;5033135;28;20469;-75
2022/03/14 04:58:04;;;;;;;6.70;2.80;;;;;;;;;;5040250;28;20415;-75
2022/03/14 05:00:38;;;;;;;7.67;2.87;;;;;;;;;;5036470;28;20418;-75
2022/03/14 05:03:06;;;;;;;7.63;2.90;;;9.20;1.00;;;;;;5037282;28;20434;-75
2022/03/14 05:05:32;;;;;;;10.90;3.00;;;;;;;;;;5018372;28;20438;-75
2022/03/14 05:07:58;;;;;;;7.57;2.80;;;;;;;;;;5047900;28;20446;-73
2022/03/14 05:10:25;;;;;;;5.50;2.50;;;;;;;;;;5041094;28;20788;-73
2022/03/14 05:12:59;;;;;;;9.03;3.33;;;9.20;1.00;;;;;;5036910;28;20796;-73
2022/03/14 05:15:26;;;;;;;5.57;2.77;;;;;;;;;;5037074;28;20462;-73
2022/03/14 05:17:52;;;;;;;6.73;2.70;;;;;;;;;;5036815;28;20427;-73
2022/03/14 05:20:19;;;;;;;8.40;3.43;;;;;;;;;;5036273;28;20803;-75
2022/03/14 05:22:45;;;;;;;6.10;2.57;;;9.10;1.00;;;;;;5035793;28;20420;-76
2022/03/14 05:25:12;;;;;;;5.23;2.50;;;;;;;;;;5038831;28;20439;-75
2022/03/14 05:27:39;;;;;;;20.50;3.80;;;9.20;1.00;;;;;;5045946;28;20899;-75
2022/03/14 05:30:08;;;;;;;6.73;2.80;;;;;;;;;;5035996;28;20427;-75
2022/03/14 05:32:34;;;;;;;5.87;3.10;;;;;;;;;;5035707;28;20435;-75
2022/03/14 05:35:00;;;;;;;9.73;2.80;;;;;;;;;;5040797;28;20461;-75
2022/03/14 05:37:26;;;;;;;8.50;3.40;;;;;;;;;;5037701;28;20489;-75
2022/03/14 05:39:52;;;;;;;8.23;3.20;;;;;;;;;;5038235;28;20493;-75
2022/03/14 05:42:26;;;;;;;9.23;2.93;;;;;;;;;;5035187;28;20438;-75
2022/03/14 05:44:56;;;;;;;7.70;2.70;;;;;;;;;;5037295;28;20427;-75
2022/03/14 05:47:22;;;;;;;7.37;3.07;;;;;;;;;;5040574;28;20454;-75
2022/03/14 05:49:48;;;;;;;8.87;3.60;;;;;;;;;;5035864;28;20793;-73
2022/03/14 05:52:14;;;;;;;9.80;3.20;;;;;;;;;;5038368;28;20422;-74
2022/03/14 05:54:40;;;;;;;16.90;4.07;;;;;;;;;;5039380;28;20847;-73
2022/03/14 05:57:07;;;;;;;6.33;2.83;;;;;;;;;;5043129;28;20911;-73
2022/03/14 05:59:33;;;;;;;8.67;3.20;;;;;;;;;;5035070;28;20424;-74
2022/03/14 06:01:59;;;;;;;5.77;3.13;;;;;;;;;;5039761;28;20836;-73
2022/03/14 06:04:26;;;;;;;7.10;3.00;;;;;;;;;;5035199;28;20438;-73
2022/03/14 06:06:52;;;;;;;5.40;2.83;;;;;;;;;;5034734;28;20437;-73
2022/03/14 06:09:18;;;;;;;12.20;3.23;;;;;;;;;;5036566;28;20427;-73
2022/03/14 06:11:45;;;;;;;6.43;3.33;;;;;;;;;;5036588;28;20537;-73
2022/03/14 06:14:12;;;;;;;7.43;2.73;;;;;;;;;;5035662;28;20460;-73
2022/03/14 06:16:38;;;;;;;9.07;3.43;;;;;;;;;;5034534;28;20434;-73
2022/03/14 06:19:05;;;;;;;19.93;4.10;;;;;;;;;;5037046;28;20505;-75
2022/03/14 06:21:34;;;;;;;8.43;3.10;;;;;;;;;;5034709;28;20774;-76
2022/03/14 06:24:01;;;;;;;82.93;9.03;;;;;;;;;;5030337;28;20501;-75
2022/03/14 06:26:35;;;;;;;4.90;2.80;;;;;;;;;;5030756;28;20945;-75
2022/03/14 06:29:02;;;;;;;28.40;4.77;;;9.10;1.00;;;;;;5036595;28;20412;-75
2022/03/14 06:31:31;;;;;;;17.40;3.30;;;;;;;;;;5017440;28;20472;-75
2022/03/14 06:33:58;;;;;;;22.77;4.30;;;;;;;;;;5031444;28;20454;-75
2022/03/14 06:36:27;;;;;;;10.03;3.67;;;9.10;1.00;;;;;;5027135;28;20467;-74
2022/03/14 06:38:56;;;;;;;12.80;3.33;;;;;;;;;;5008424;28;20435;-74
2022/03/14 06:41:22;;;;;;;7.40;2.93;;;9.10;1.00;;;;;;5017808;28;20991;-74
2022/03/14 06:43:49;;;;;;;33.80;5.03;;;;;;;;;;5037143;28;20437;-74
2022/03/14 06:46:15;;;;;;;12.03;2.90;;;;;;;;;;5033446;28;20506;-74
2022/03/14 06:48:41;;;;;;;5.20;2.10;;;;;;;;;;5016033;28;20423;-74
2022/03/14 06:51:08;;;;;;;15.00;2.90;;;;;;;;;;5039297;28;20400;-75
2022/03/14 06:53:34;;;;;;;3.73;2.33;;;;;;;;;;5016493;28;20501;-75
2022/03/14 06:56:03;;;;;;;7.03;2.20;;;;;;;;;;5016142;28;20510;-75
2022/03/14 06:58:29;;;;;;;4.43;2.27;;;;;;;;;;5033849;28;20397;-76
2022/03/14 07:00:57;;;;;;;6.50;2.37;;;;;;;;;;5026209;28;20423;-75
2022/03/14 07:03:27;;;;;;;15.20;2.80;;;;;;;;;;5031960;28;20431;-75
2022/03/14 07:05:53;;;;;;;15.27;3.40;;;;;;;;;;5034902;28;20418;-75
2022/03/14 07:08:20;;;;;;;13.17;2.87;;;;;;;;;;5032375;28;20480;-75
2022/03/14 07:10:46;;;;;;;12.10;2.70;;;;;;;;;;5033456;28;20427;-75
2022/03/14 07:13:12;;;;;;;9.93;2.73;;;;;;;;;;5033058;28;20518;-75
2022/03/14 07:15:39;;;;;;;12.53;2.93;;;;;;;;;;5014005;28;20984;-75
2022/03/14 07:18:05;;;;;;;3.63;2.10;;;;;;;;;;5032052;28;20415;-75
2022/03/14 07:20:31;;;;;;;8.73;2.20;;;;;;;;;;5027837;28;20419;-75
2022/03/14 07:23:02;;;;;;;8.40;2.67;;;;;;;;;;5032806;28;20422;-75
2022/03/14 07:25:30;;;;;;;19.23;3.40;;;9.50;1.00;;;;;;5031719;28;20859;-76
2022/03/14 07:27:59;;;;;;;5.90;2.23;;;;;;;;;;5031212;28;20473;-76
2022/03/14 07:30:25;;;;;;;11.13;3.07;;;;;;;;;;5032861;28;20407;-75
2022/03/14 07:32:51;;;;;;;5.87;2.40;;;;;;;;;;5033295;28;20770;-75
2022/03/14 07:35:18;;;;;;;5.50;2.50;;;9.40;1.00;;;;;;5033591;28;20454;-75
2022/03/14 07:37:44;;;;;;;10.70;3.43;;;;;;;;;;5033829;28;20857;-74
2022/03/14 07:40:15;;;;;;;25.87;4.03;;;9.50;1.00;;;;;;5033267;28;20463;-74
2022/03/14 07:42:45;;;;;;;8.07;2.67;;;;;;;;;;5032619;28;20423;-74
2022/03/14 07:45:13;;;;;;;8.03;2.60;;;9.50;1.00;;;;;;5032477;28;20417;-74
2022/03/14 07:47:39;;;;;;;4.60;2.13;;;;;;;;;;5032214;28;20423;-74
2022/03/14 07:50:06;;;;;;;12.40;2.80;;;;;;;;;;5032300;28;20900;-74
2022/03/14 07:52:32;;;;;;;9.53;3.10;;;9.50;1.00;;;;;;5032806;28;20411;-75
2022/03/14 07:54:58;;;;;;;8.07;2.27;;;;;;;;;;5032292;28;20454;-75
2022/03/14 07:57:24;;;;;;;8.40;2.50;;;;;;;;;;5032446;28;20975;-75
2022/03/14 07:59:51;;;;;;;10.87;3.17;;;;;;;;;;5029470;28;20436;-76
2022/03/14 08:02:17;;;;;;;15.87;3.60;;;;;;;;;;5032293;28;20439;-75
2022/03/14 08:04:43;;;;;;;11.53;3.13;;;;;;;;;;5014688;28;20427;-75
2022/03/14 08:07:09;;;;;;;10.63;3.20;;;;;;;;;;5020029;28;20923;-73
2022/03/14 08:09:36;;;;;;;6.80;2.73;;;;;;;;;;5032160;28;20501;-74
2022/03/14 08:12:04;;;;;;;9.30;2.90;;;;;;;;;;5032368;28;20438;-74
2022/03/14 08:14:31;;;;;;;15.47;3.57;;;;;;;;;;5032203;28;20964;-74
2022/03/14 08:16:57;;;;;;;6.93;2.70;;;;;;;;;;5032300;28;20393;-74
2022/03/14 08:19:23;;;;;;;9.30;2.70;;;;;;;;;;5032193;28;20758;-74
2022/03/14 08:21:51;;;;;;;8.07;2.43;;;;;;;;;;5032417;28;20999;-74
2022/03/14 08:24:17;;;;;;;14.47;2.97;;;;;;;;;;5032106;28;20441;-74
2022/03/14 08:26:44;;;;;;;9.20;3.10;;;;;;;;;;5032306;28;20426;-74
2022/03/14 08:29:10;;;;;;;4.47;2.10;;;;;;;;;;5032174;28;20466;-74
2022/03/14 08:31:36;;;;;;;7.63;2.63;;;;;;;;;;5035955;28;20695;-74
2022/03/14 08:34:02;;;;;;;10.60;3.67;;;;;;;;;;5035714;28;20459;-74
2022/03/14 08:36:28;;;;;;;10.30;3.47;;;;;;;;;;5035746;28;20411;-74
2022/03/14 08:38:55;;;;;;;8.70;2.97;;;;;;;;;;5040116;28;20410;-73
2022/03/14 08:41:26;;;;;;;8.90;2.70;;;;;;;;;;5050499;28;20405;-73
2022/03/14 08:43:52;;;;;;;12.00;2.90;;;;;;;;;;5041849;28;20426;-74
2022/03/14 08:46:20;;;;;;;7.73;2.90;;;;;;;;;;5039237;28;20553;-74
2022/03/14 08:48:46;;;;;;;17.37;3.40;;;;;;;;;;5036240;28;20478;-73
2022/03/14 08:51:12;;;;;;;8.27;3.13;;;;;;;;;;5036218;28;20850;-74
2022/03/14 08:53:38;;;;;;;7.37;3.10;;;;;;;;;;5036524;28;20892;-76
2022/03/14 08:56:05;;;;;;;5.80;2.67;;;;;;;;;;5036499;28;20417;-75
2022/03/14 08:58:33;;;;;;;8.47;3.40;;;10.70;1.00;;;;;;5018494;28;20508;-76
2022/03/14 09:01:02;;;;;;;6.53;3.10;;;;;;;;;;5036500;28;20424;-76
2022/03/14 09:03:29;;;;;;;6.57;2.80;;;;;;;;;;5036589;28;20477;-77
2022/03/14 09:05:58;;;;;;;9.40;2.87;;;;;;;;;;5039522;28;20392;-76
2022/03/14 09:08:24;;;;;;;13.40;3.33;;;;;;;;;;5036471;28;20760;-73
2022/03/14 09:10:50;;;;;;;9.57;2.97;;;11.00;1.00;;;;;;5039682;28;20431;-74
2022/03/14 09:13:18;;;;;;;16.07;3.70;;;;;;;;;;5035669;28;20443;-73
2022/03/14 09:15:47;;;;;;;17.83;4.30;;;;;;;;;;5040821;28;21179;-73
2022/03/14 09:18:14;;;;;;;14.43;2.87;;;;;;;;;;5040365;28;20411;-74
2022/03/14 09:20:40;;;;;;;9.87;2.40;;;;;;;;;;5035981;28;20464;-74
2022/03/14 09:23:07;;;;;;;13.30;2.97;;;11.40;1.00;;;;;;5036290;28;20415;-73
2022/03/14 09:25:33;;;;;;;9.20;2.63;;;;;;;;;;5035964;28;20753;-73
2022/03/14 09:27:59;;;;;;;31.33;3.70;;;;;;;;;;5034743;28;21638;-73
2022/03/14 09:30:26;;;;;;;10.57;3.13;;;;;;;;;;5034813;28;20393;-74
2022/03/14 09:32:53;;;;;;;9.47;2.80;;;12.10;1.00;;;;;;5034869;28;20918;-73
2022/03/14 09:35:19;;;;;;;5.70;1.53;;;;;;;;;;5034829;28;20988;-74
2022/03/14 09:37:45;;;;;;;7.57;2.10;;;;;;;;;;5034859;28;20816;-73
2022/03/14 09:40:16;;;;;;;22.63;2.90;;;12.00;1.00;;;;;;5034852;28;20451;-75
2022/03/14 09:42:44;;;;;;;10.90;2.00;;;12.00;1.00;;;;;;5034050;28;20423;-76
2022/03/14 09:45:11;;;;;;;16.47;1.70;;;;;;;;;;5034754;28;20447;-76
2022/03/14 09:47:39;;;;;;;8.10;1.70;;;12.20;1.00;;;;;;5029833;28;20946;-76
2022/03/14 09:50:30;;;;;;;5.43;1.60;;;12.30;1.00;;;;;;5034557;28;20394;-76
2022/03/14 09:53:03;;;;;;;20.73;2.87;;;;;;;;;;5033555;28;20386;-76
2022/03/14 09:55:29;;;;;;;8.20;2.30;;;;;;;;;;5034107;28;20520;-73
2022/03/14 09:57:55;;;;;;;7.83;2.07;;;;;;;;;;5034307;28;20818;-75
2022/03/14 10:00:21;;;;;;;8.67;1.97;;;;;;;;;;5035978;28;20730;-73
2022/03/14 10:02:48;;;;;;;11.00;2.70;;;;;;;;;;5032152;28;20415;-73
2022/03/14 10:05:15;;;;;;;8.20;1.90;;;12.60;1.00;;;;;;5036551;28;20419;-73
2022/03/14 10:07:45;;;;;;;10.80;2.20;;;;;;;;;;5035049;28;20436;-73
2022/03/14 10:10:12;;;;;;;6.13;1.97;;;;;;;;;;5035199;28;20522;-73
2022/03/14 10:12:38;;;;;;;10.17;2.00;;;;;;;;;;5034671;28;20443;-74
2022/03/14 10:15:05;;;;;;;9.00;2.20;;;12.60;1.00;;;;;;5034617;28;20921;-73
2022/03/14 10:17:34;;;;;;;9.57;2.20;;;;;;;;;;5035020;28;20461;-75
2022/03/14 10:20:01;;;;;;;16.03;2.50;;;12.40;1.00;;;;;;5034697;28;20489;-74
2022/03/14 10:22:38;;;;;;;4.33;1.70;;;12.40;1.00;;;;;;5034769;28;20490;-73
2022/03/14 10:25:10;;;;;;;6.57;1.80;;;12.20;1.00;;;;;;5035082;28;20427;-75
2022/03/14 10:27:38;;;;;;;3.57;1.40;;;12.10;1.00;;;;;;5035086;28;20514;-76
2022/03/14 10:30:22;;;;;;;4.70;1.57;;;;;;;;;;5020603;28;20882;-75
2022/03/14 10:33:23;;;;;;;8.93;1.90;;;12.00;1.00;;;;;;5016908;28;20477;-76
2022/03/14 10:35:49;;;;;;;16.60;2.93;;;;;;;;;;4935042;29;20539;-75
2022/03/14 10:38:18;;;;;;;21.50;3.10;;;;;;;;;;4935145;29;20425;-76
2022/03/14 10:40:45;;;;;;;3.57;1.00;;;12.30;1.00;;;;;;4948661;29;20428;-74
2022/03/14 10:43:29;;;;;;;7.33;2.27;;;12.30;1.00;;;;;;4940014;29;20474;-73
2022/03/14 10:45:56;;;;;;;11.77;2.10;;;12.30;1.00;;;;;;4937155;29;20439;-73
2022/03/14 10:48:43;;;;;;;9.90;1.93;;;12.30;1.00;;;;;;4937220;29;20492;-73
2022/03/14 10:51:11;;;;;;;4.40;1.50;;;12.30;1.00;;;;;;4935401;29;20534;-73
2022/03/14 10:53:41;;;;;;;8.23;2.63;;;;;;;;;;4933416;29;20522;-73
2022/03/14 10:56:07;;;;;;;28.70;4.47;;;;;;;;;;4943736;29;20386;-76
2022/03/14 10:58:34;;;;;;;4.63;1.73;;;;;;;;;;4933995;29;20422;-76
2022/03/14 11:01:11;;;;;;;8.57;2.10;;;12.60;1.00;;;;;;4921358;29;20433;-76
2022/03/14 11:03:41;;;;;;;10.40;2.30;;;12.70;1.00;;;;;;4933903;29;20480;-76
2022/03/14 11:06:11;;;;;;;6.40;1.80;;;12.60;1.00;;;;;;4933716;29;20474;-76
2022/03/14 11:08:37;;;;;;;5.90;1.70;;;;;;;;;;4937137;29;20487;-76
2022/03/14 11:11:09;;;;;;;8.27;1.73;;;12.30;1.00;;;;;;4970898;28;20406;-74
2022/03/14 11:13:46;;;;;;;6.60;2.00;;;12.10;1.00;;;;;;5016760;28;20450;-73
2022/03/14 11:16:23;;;;;;;5.23;1.40;;;12.10;1.00;;;;;;5032974;28;20419;-73
2022/03/14 11:18:50;;;;;;;11.83;2.43;;;12.00;1.00;;;;;;5037682;28;20923;-73
2022/03/14 11:21:20;;;;;;;6.73;2.00;;;12.00;1.00;;;;;;5043619;28;20965;-73
2022/03/14 11:23:52;;;;;;;12.13;2.20;;;12.00;1.00;;;;;;5033146;28;20425;-73
2022/03/14 11:26:20;;;;;;;9.50;2.50;;;;;;;;;;5033020;28;20422;-76
2022/03/14 11:28:47;;;;;;;10.77;2.10;;;;;;;;;;5032933;28;20429;-76
2022/03/14 11:31:13;;;;;;;16.63;2.40;;;;;;;;;;5033934;28;20384;-76
2022/03/14 11:33:41;;;;;;;7.63;1.83;;;;;;;;;;5036393;28;20923;-76
2022/03/14 11:36:07;;;;;;;6.50;1.87;;;;;;;;;;5035210;28;20764;-76
2022/03/14 11:38:33;;;;;;;15.23;2.70;;;;;;;;;;5031418;28;20429;-75
2022/03/14 11:41:00;;;;;;;6.07;1.63;;;12.70;1.00;;;;;;5039366;28;20397;-74
2022/03/14 11:43:26;;;;;;;10.77;2.10;;;;;;;;;;5041840;28;20411;-73
2022/03/14 11:45:53;;;;;;;12.03;2.80;;;12.90;1.00;;;;;;5039231;28;20455;-73
2022/03/14 11:48:21;;;;;;;6.40;1.80;;;13.10;1.00;;;;;;5032626;28;20415;-73
2022/03/14 11:50:53;;;;;;;7.83;1.90;;;13.00;1.00;;;;;;5040734;28;20515;-73
2022/03/14 11:53:24;;;;;;;5.90;1.67;;;13.30;1.00;;;;;;5032531;28;20423;-73
2022/03/14 11:56:05;;;;;;;11.10;2.00;;;13.40;1.00;;;;;;5032671;28;20512;-76
2022/03/14 11:58:38;;;;;;;14.43;2.90;;;13.40;1.00;;;;;;5032449;28;20423;-76
2022/03/14 12:01:27;;;;;;;9.67;2.53;;;13.40;1.00;;;;;;5035133;28;20454;-76
2022/03/14 12:03:54;;;;;;;8.50;2.07;;;;;;;;;;5032442;28;20411;-76
2022/03/14 12:06:39;;;;;;;7.37;2.13;;;;;;;;;;5035971;28;20410;-76
2022/03/14 12:09:05;;;;;;;9.00;2.33;;;;;;;;;;5037609;28;20422;-76
2022/03/14 12:11:35;;;;;;;9.90;2.47;;;12.80;1.00;;;;;;5036731;28;20525;-73
2022/03/14 12:14:01;;;;;;;8.87;2.33;;;;;;;;;;5037675;28;20528;-73
2022/03/14 12:16:44;;;;;;;9.50;2.10;;;;;;;;;;5036282;28;20389;-73
2022/03/14 12:19:38;;;;;;;7.83;2.03;;;12.80;1.00;;;;;;5042738;28;20422;-73
2022/03/14 12:22:06;;;;;;;9.93;2.37;;;;;;;;;;5029645;28;20401;-73
2022/03/14 12:24:38;;;;;;;10.73;3.10;;;;;;;;;;5028177;28;20431;-73
2022/03/14 12:27:21;;;;;;;15.03;3.07;;;13.20;1.00;;;;;;5035927;28;20430;-73
2022/03/14 12:29:52;;;;;;;14.90;3.30;;;;;;;;;;5026822;28;20805;-73
2022/03/14 12:32:33;;;;;;;10.10;2.70;;;;;;;;;;5032143;28;20798;-73
2022/03/14 12:35:00;;;;;;;8.70;2.53;;;12.80;1.00;;;;;;5035529;28;20514;-73
2022/03/14 12:37:34;;;;;;;8.20;2.27;;;;;;;;;;5038944;28;20397;-73
2022/03/14 12:40:00;;;;;;;17.17;3.17;;;;;;;;;;5024016;28;20406;-75
2022/03/14 12:42:26;;;;;;;8.50;2.20;;;;;;;;;;5045744;28;20497;-75
2022/03/14 12:45:15;;;;;;;5.60;2.10;;;12.50;1.00;;;;;;5038288;28;20419;-76
2022/03/14 12:47:49;;;;;;;10.30;2.10;;;;;;;;;;5035267;28;20477;-76
2022/03/14 12:50:50;;;;;;;9.57;2.57;;;12.90;1.00;;;;;;5035672;28;20441;-76
2022/03/14 12:53:18;;;;;;;9.53;2.17;;;13.00;1.00;;;;;;5035615;28;20385;-76
2022/03/14 12:55:45;;;;;;;25.53;3.83;;;13.10;1.00;;;;;;5035966;28;20451;-76
2022/03/14 12:58:17;;;;;;;14.10;2.27;;;;;;;;;;5038497;28;20433;-76
2022/03/14 13:00:43;;;;;;;8.43;2.20;;;;;;;;;;5037158;28;20762;-76
2022/03/14 13:03:09;;;;;;;9.00;2.20;;;13.50;1.00;;;;;;5031488;28;20426;-76
2022/03/14 13:05:41;;;;;;;10.10;1.97;;;13.40;1.00;;;;;;5035101;28;20413;-75
2022/03/14 13:08:07;;;;;;;20.63;3.10;;;;;;;;;;5036962;28;20401;-76
2022/03/14 13:10:39;;;;;;;20.37;3.00;;;;;;;;;;5021419;28;20437;-76
2022/03/14 13:13:08;;;;;;;13.33;2.07;;;;;;;;;;5043933;28;20840;-76
2022/03/14 13:15:36;;;;;;;13.30;2.00;;;;;;;;;;5040207;28;20458;-76
2022/03/14 13:18:03;;;;;;;5.40;1.10;;;;;;;;;;5033634;28;20411;-76
2022/03/14 13:20:30;;;;;;;7.77;1.33;;;13.00;1.00;;;;;;5018184;28;20410;-76
2022/03/14 13:23:15;;;;;;;9.40;1.63;;;;;;;;;;5019336;28;20402;-75
2022/03/14 13:25:46;;;;;;;24.00;2.77;;;;;;;;;;5028163;28;20446;-74
2022/03/14 13:28:25;;;;;;;2.93;0.83;;;13.40;1.00;;;;;;5023787;28;20473;-74
2022/03/14 13:30:51;;;;;;;9.73;1.77;;;;;;;;;;5043196;28;20427;-74
2022/03/14 13:33:23;;;;;;;3.90;1.13;;;13.80;1.00;;;;;;5041613;28;20419;-75
2022/03/14 13:35:51;;;;;;;15.27;2.00;;;13.80;1.00;;;;;;5037078;28;20437;-75
2022/03/14 13:38:37;;;;;;;3.90;1.10;;;13.90;1.00;;;;;;5037532;28;20912;-75
2022/03/14 13:41:13;;;;;;;4.60;1.60;;;13.80;1.00;;;;;;5035931;28;20382;-75
2022/03/14 13:43:42;;;;;;;3.90;1.13;;;13.90;1.00;;;;;;5033897;28;20389;-75
2022/03/14 13:46:34;;;;;;;10.33;1.23;;;14.30;1.00;;;;;;5035524;28;20950;-74
2022/03/14 13:49:15;;;;;;;4.70;1.33;;;;;;;;;;5032992;28;20393;-75
2022/03/14 13:52:12;;;;;;;13.70;2.33;;;14.50;99.90;;;;;;5030987;28;20390;-74
2022/03/14 13:54:49;;;;;;;11.20;1.80;;;14.50;99.90;;;;;;4946149;28;20801;-75
2022/03/14 13:57:15;;;;;;;3.23;1.00;;;;;;;;;;4959935;28;20466;-75
2022/03/14 13:59:46;;;;;;;7.37;1.47;;;14.30;99.90;;;;;;4955012;29;20958;-77
2022/03/14 14:02:22;;;;;;;3.80;1.50;;;14.20;99.90;;;;;;4955370;29;20426;-76
2022/03/14 14:04:51;;;;;;;4.73;1.17;;;;;;;;;;4955172;29;20388;-77
2022/03/14 14:07:24;;;;;;;9.20;1.47;;;14.00;99.90;;;;;;4954155;28;20409;-76
2022/03/14 14:09:52;;;;;;;2.70;1.00;;;;;;;;;;4967604;28;20799;-76
2022/03/14 14:12:23;;;;;;;9.90;1.90;;;14.00;99.90;;;;;;4956335;28;20607;-75
2022/03/14 14:14:54;;;;;;;8.30;1.63;;;14.10;99.90;;;;;;4954431;29;20878;-75
2022/03/14 14:17:22;;;;;;;13.60;1.67;;;;;;;;;;4954668;28;20836;-75
2022/03/14 14:20:07;;;;;;;9.93;1.93;;;14.00;99.90;;;;;;4954404;28;20485;-75